Time;durP1;ratioP1;P1;durP2;ratioP2;P2;SDS_P1;SDS_P2;PMS_P1;PMS_P2;Temp;Humidity;BMP_temperature;BMP_pressure;BME280_temperature;BME280_humidity;BME280_pressure;Samples;Min_cycle;Max_cycle;Signal;HPM_P1;HPM_P2
2022/01/17 00:02:04;;;;;;;;;;;;;;;12.92;54.55;101214.19;4981569;27;118347;-64
2022/01/17 00:04:30;;;;;;;;;;;;;;;12.92;54.60;101207.97;4981566;27;98834;-57
2022/01/17 00:06:55;;;;;;;;;;;;;;;12.92;54.63;101191.72;4981645;28;115782;-64
2022/01/17 00:09:22;;;;;;;;;;;;;;;12.92;54.55;101206.06;4980445;27;126648;-57
2022/01/17 00:11:50;;;;;;;;;;;;;;;12.92;54.52;101210.66;4982163;27;98039;-57
2022/01/17 00:14:18;;;;;;;;;;;;;;;12.91;54.57;101209.88;4981752;27;99104;-57
2022/01/17 00:16:51;;;;;;;;;;;;;;;12.92;54.84;101197.16;4983135;27;99013;-64
2022/01/17 00:21:49;;;;;;;;;;;;;;;12.91;54.57;101206.34;4959060;28;98029;-57
2022/01/17 00:24:18;;;;;;;;;;;;;;;12.90;54.56;101208.25;4961716;28;98555;-57
2022/01/17 00:26:44;;;;;;;;;;;;;;;12.91;54.72;101220.69;4981043;27;98618;-65
2022/01/17 00:29:10;;;;;;;;;;;;;;;12.92;54.43;101214.19;4981505;27;100287;-65
2022/01/17 00:31:36;;;;;;;;;;;;;;;12.91;54.53;101204.44;4981373;28;117572;-64
2022/01/17 00:34:01;;;;;;;;;;;;;;;12.91;54.53;101193.63;4981455;28;115734;-57
2022/01/17 00:36:27;;;;;;;;;;;;;;;12.92;54.75;101211.47;4980666;27;126747;-64
2022/01/17 00:38:53;;;;;;;;;;;;;;;12.92;54.52;101210.66;4961684;28;128673;-65
2022/01/17 00:41:19;;;;;;;;;;;;;;;12.91;54.42;101203.63;5013733;27;98163;-57
2022/01/17 00:43:45;;;;;;;;;;;;;;;12.91;54.45;101198.22;4980041;28;120952;-57
2022/01/17 00:46:11;;;;;;;;;;;;;;;12.92;54.56;101200.66;4980323;28;128869;-57
2022/01/17 00:48:37;;;;;;;;;;;;;;;12.93;54.58;101187.94;4981066;27;97980;-57
2022/01/17 00:51:03;;;;;;;;;;;;;;;12.92;54.56;101189.03;4980934;27;116484;-65
2022/01/17 00:53:30;;;;;;;;;;;;;;;12.92;54.51;101199.84;4979811;28;128600;-57
2022/01/17 00:55:56;;;;;;;;;;;;;;;12.92;54.43;101202.56;4980716;27;98145;-57
2022/01/17 00:58:22;;;;;;;;;;;;;;;12.92;54.43;101192.53;4980944;28;126928;-65
2022/01/17 01:00:48;;;;;;;;;;;;;;;12.92;54.28;101200.66;4980682;28;97795;-65
2022/01/17 01:03:13;;;;;;;;;;;;;;;12.92;54.50;101192.53;4979748;28;126723;-57
2022/01/17 01:05:39;;;;;;;;;;;;;;;12.93;54.60;101198.75;4979916;28;127988;-57
2022/01/17 01:08:05;;;;;;;;;;;;;;;12.92;54.54;101195.25;4981739;28;98184;-57
2022/01/17 01:10:32;;;;;;;;;;;;;;;12.93;54.47;101193.34;4979330;27;111367;-57
2022/01/17 01:12:58;;;;;;;;;;;;;;;12.93;54.48;101204.19;4980832;27;98287;-66
2022/01/17 01:15:47;;;;;;;;;;;;;;;12.93;54.82;101193.34;4981205;27;99039;-65
2022/01/17 01:18:29;;;;;;;;;;;;;;;12.93;54.50;101191.47;4980327;27;97784;-57
2022/01/17 01:22:01;;;;;;;;;;;;;;;12.93;54.77;101180.66;4981265;27;98137;-57
2022/01/17 01:29:20;;;;;;;;;;;;;;;12.94;54.67;101173.34;4978489;27;97957;-65
2022/01/17 01:31:51;;;;;;;;;;;;;;;12.93;54.89;101169.00;4981149;28;99240;-57
2022/01/17 01:34:20;;;;;;;;;;;;;;;12.94;54.82;101174.16;4980773;27;97931;-65
2022/01/17 01:36:48;;;;;;;;;;;;;;;12.94;54.75;101181.47;4979181;28;98724;-57
2022/01/17 01:39:21;;;;;;;;;;;;;;;12.94;54.78;101176.88;4980613;28;98495;-64
2022/01/17 01:41:47;;;;;;;;;;;;;;;12.95;54.81;101166.84;4980538;27;97950;-58
2022/01/17 01:44:21;;;;;;;;;;;;;;;12.95;54.70;101174.97;4979214;28;128622;-57
2022/01/17 01:46:47;;;;;;;;;;;;;;;12.96;55.09;101168.47;4967431;28;105569;-57
2022/01/17 01:49:14;;;;;;;;;;;;;;;12.95;55.02;101167.66;4980845;27;98073;-57
2022/01/17 01:51:40;;;;;;;;;;;;;;;12.96;54.84;101161.16;4980010;28;97959;-65
2022/01/17 01:54:07;;;;;;;;;;;;;;;12.96;55.00;101150.34;4979890;27;99068;-64
2022/01/17 01:56:36;;;;;;;;;;;;;;;12.97;54.85;101156.59;4980107;27;98746;-65
2022/01/17 01:59:02;;;;;;;;;;;;;;;12.96;55.09;101152.22;4979883;27;97623;-65
2022/01/17 02:01:28;;;;;;;;;;;;;;;12.97;55.15;101151.19;4980590;27;109302;-64
2022/01/17 02:03:54;;;;;;;;;;;;;;;12.97;55.08;101149.28;4978557;28;128801;-65
2022/01/17 02:06:20;;;;;;;;;;;;;;;12.97;55.14;101146.56;4979914;28;128280;-57
2022/01/17 02:08:46;;;;;;;;;;;;;;;12.99;55.04;101139.00;4980064;28;110123;-57
2022/01/17 02:11:12;;;;;;;;;;;;;;;12.99;55.08;101135.47;5011122;27;108972;-64
2022/01/17 02:13:41;;;;;;;;;;;;;;;12.98;55.28;101129.25;4979441;28;127512;-64
2022/01/17 02:16:14;;;;;;;;;;;;;;;12.98;55.06;101121.13;4977453;27;112265;-65
2022/01/17 02:18:41;;;;;;;;;;;;;;;12.98;55.20;101117.63;4978371;28;98390;-57
2022/01/17 02:21:18;;;;;;;;;;;;;;;12.96;55.14;101115.16;4979751;28;104934;-57
2022/01/17 02:23:51;;;;;;;;;;;;;;;12.98;55.05;101131.97;4979488;28;98462;-57
2022/01/17 02:26:18;;;;;;;;;;;;;;;13.00;55.30;101137.91;4980021;27;98337;-65
2022/01/17 02:28:49;;;;;;;;;;;;;;;12.99;55.27;101117.34;4979683;27;114007;-64
2022/01/17 02:31:15;;;;;;;;;;;;;;;12.99;55.26;101097.59;4980526;27;98010;-65
2022/01/17 02:33:41;;;;;;;;;;;;;;;12.99;54.98;101103.81;4979427;28;125790;-64
2022/01/17 02:36:07;;;;;;;;;;;;;;;13.00;55.25;101105.44;4979714;28;99121;-64
2022/01/17 02:38:32;;;;;;;;;;;;;;;13.01;55.23;101090.03;4976942;28;118679;-57
2022/01/17 02:40:58;;;;;;;;;;;;;;;12.99;55.27;101098.41;4977358;28;117420;-64
2022/01/17 02:43:26;;;;;;;;;;;;;;;12.99;54.93;101084.88;4978565;27;127643;-57
2022/01/17 02:48:25;;;;;;;;;;;;;;;13.01;55.06;101084.63;4977120;28;98207;-65
2022/01/17 02:50:51;;;;;;;;;;;;;;;13.00;54.84;101074.84;4982981;27;97974;-64
2022/01/17 02:53:17;;;;;;;;;;;;;;;12.99;55.17;101068.63;4981088;28;129579;-64
2022/01/17 02:55:49;;;;;;;;;;;;;;;12.99;55.00;101082.16;4981697;28;116861;-57
2022/01/17 02:58:16;;;;;;;;;;;;;;;12.99;55.08;101082.16;4982342;27;98751;-65
2022/01/17 03:00:42;;;;;;;;;;;;;;;12.98;55.06;101080.53;4983206;27;97810;-64
2022/01/17 03:03:12;;;;;;;;;;;;;;;12.99;55.26;101075.94;4983421;28;99804;-57
2022/01/17 03:05:38;;;;;;;;;;;;;;;12.99;55.14;101070.53;4981039;28;97952;-57
2022/01/17 03:08:04;;;;;;;;;;;;;;;12.99;55.01;101086.75;4979509;28;119976;-57
2022/01/17 03:13:03;;;;;;;;;;;;;;;13.00;55.31;101061.31;4979817;27;97845;-64
2022/01/17 03:15:29;;;;;;;;;;;;;;;13.02;55.32;101064.59;4982758;27;98727;-57
2022/01/17 03:17:55;;;;;;;;;;;;;;;13.02;55.11;101040.22;4982643;28;97952;-57
2022/01/17 03:20:21;;;;;;;;;;;;;;;13.03;55.23;101044.56;4982239;28;97802;-64
2022/01/17 03:22:47;;;;;;;;;;;;;;;13.03;55.38;101033.72;4983330;27;98912;-64
2022/01/17 03:25:13;;;;;;;;;;;;;;;13.05;55.33;101036.16;4981699;28;98606;-65
2022/01/17 03:27:39;;;;;;;;;;;;;;;13.06;55.10;101021.56;4982347;27;97735;-64
2022/01/17 03:30:05;;;;;;;;;;;;;;;13.05;55.31;101026.16;4983136;27;97814;-65
2022/01/17 03:32:31;;;;;;;;;;;;;;;13.06;55.23;101026.97;4981833;28;110086;-65
2022/01/17 03:34:57;;;;;;;;;;;;;;;13.06;55.37;101016.94;4980536;27;128812;-57
2022/01/17 03:37:23;;;;;;;;;;;;;;;13.07;55.35;101023.97;4981743;28;128077;-64
2022/01/17 03:39:49;;;;;;;;;;;;;;;13.07;55.31;101029.41;4982331;27;98015;-64
2022/01/17 03:42:15;;;;;;;;;;;;;;;13.08;55.39;101006.66;4981606;28;127983;-57
2022/01/17 03:44:41;;;;;;;;;;;;;;;13.09;55.35;100988.53;4981462;27;121681;-57
2022/01/17 03:47:07;;;;;;;;;;;;;;;13.10;55.23;100995.56;4981685;28;126883;-65
2022/01/17 03:49:33;;;;;;;;;;;;;;;13.09;55.47;100989.34;4981754;28;116910;-64
2022/01/17 03:51:59;;;;;;;;;;;;;;;13.11;55.05;101003.41;4982825;28;98169;-57
2022/01/17 03:54:25;;;;;;;;;;;;;;;13.12;55.24;100996.91;4981269;28;129799;-65
2022/01/17 03:56:50;;;;;;;;;;;;;;;13.11;55.21;101011.53;4982152;28;128413;-57
2022/01/17 03:59:16;;;;;;;;;;;;;;;13.12;55.24;101018.56;4981762;28;111514;-64
2022/01/17 04:01:42;;;;;;;;;;;;;;;13.12;55.28;101006.94;4981120;28;125926;-65
2022/01/17 04:04:08;;;;;;;;;;;;;;;13.11;54.97;100998.00;4982020;28;127915;-57
2022/01/17 04:06:35;;;;;;;;;;;;;;;13.12;55.14;101009.63;4980722;27;127118;-57
2022/01/17 04:09:01;;;;;;;;;;;;;;;13.12;55.29;101020.47;4981651;28;98034;-57
2022/01/17 04:11:27;;;;;;;;;;;;;;;13.13;55.13;101022.91;4980612;28;129648;-64
2022/01/17 04:13:53;;;;;;;;;;;;;;;13.13;55.33;101020.22;4981592;27;99019;-65
2022/01/17 04:16:18;;;;;;;;;;;;;;;13.14;55.16;101015.59;4982022;27;98625;-64
2022/01/17 04:18:44;;;;;;;;;;;;;;;13.15;55.05;101011.81;4980571;28;118301;-64
2022/01/17 04:21:10;;;;;;;;;;;;;;;13.14;54.94;100993.94;4981762;27;98825;-57
2022/01/17 04:23:36;;;;;;;;;;;;;;;13.15;55.20;101022.63;4981770;28;98561;-57
2022/01/17 04:26:02;;;;;;;;;;;;;;;13.14;54.94;101019.13;4980225;28;128465;-65
2022/01/17 04:28:28;;;;;;;;;;;;;;;13.15;55.23;101022.63;4981281;27;118122;-65
2022/01/17 04:30:54;;;;;;;;;;;;;;;13.14;55.21;101019.13;4981372;27;128368;-57
2022/01/17 04:33:20;;;;;;;;;;;;;;;13.17;55.15;101034.00;4979089;28;128304;-57
2022/01/17 04:35:46;;;;;;;;;;;;;;;13.17;55.20;101037.53;5013075;27;119812;-64
2022/01/17 04:38:15;;;;;;;;;;;;;;;13.18;55.13;101032.94;4978316;28;118047;-58
2022/01/17 04:40:44;;;;;;;;;;;;;;;13.19;55.19;101016.41;4959704;28;98108;-65
2022/01/17 04:43:32;;;;;;;;;;;;;;;13.20;54.95;101025.34;4979041;28;98430;-57
2022/01/17 04:45:58;;;;;;;;;;;;;;;13.19;55.20;101021.81;4981989;28;98077;-57
2022/01/17 04:48:26;;;;;;;;;;;;;;;13.19;55.19;101026.41;4981267;27;117836;-57
2022/01/17 04:50:52;;;;;;;;;;;;;;;13.20;55.25;101020.75;4981205;27;98269;-57
2022/01/17 04:53:20;;;;;;;;;;;;;;;13.20;54.88;101028.88;4979010;28;116835;-57
2022/01/17 04:55:46;;;;;;;;;;;;;;;13.20;54.92;101036.16;4980525;27;97986;-65
2022/01/17 04:58:12;;;;;;;;;;;;;;;13.20;55.05;101034.28;4981182;27;114637;-57
2022/01/17 05:00:45;;;;;;;;;;;;;;;13.21;54.95;101045.94;4980996;27;98549;-65
2022/01/17 05:03:12;;;;;;;;;;;;;;;13.21;54.96;101044.03;4981714;27;98155;-57
2022/01/17 05:05:38;;;;;;;;;;;;;;;13.22;54.87;101047.53;4980459;27;116998;-57
2022/01/17 05:08:04;;;;;;;;;;;;;;;13.22;54.96;101047.53;4981655;27;100762;-64
2022/01/17 05:10:30;;;;;;;;;;;;;;;13.23;54.98;101049.19;4980443;27;119353;-65
2022/01/17 05:12:56;;;;;;;;;;;;;;;13.23;54.95;101046.47;4980681;27;98637;-57
2022/01/17 05:20:32;;;;;;;;;;;;;;;13.25;54.77;101066.00;4979694;28;98156;-64
2022/01/17 05:22:58;;;;;;;;;;;;;;;13.26;54.84;101056.78;4980388;28;126142;-57
2022/01/17 05:25:24;;;;;;;;;;;;;;;13.27;55.22;101070.03;4979871;28;128445;-64
2022/01/17 05:27:50;;;;;;;;;;;;;;;13.27;54.74;101064.63;4980094;27;117757;-64
2022/01/17 05:30:17;;;;;;;;;;;;;;;13.30;55.27;101048.94;4980548;27;97859;-65
2022/01/17 05:32:44;;;;;;;;;;;;;;;13.29;55.00;101050.81;4981221;27;98584;-64
2022/01/17 05:35:10;;;;;;;;;;;;;;;13.29;54.94;101058.94;4980738;27;98311;-65
2022/01/17 05:37:36;;;;;;;;;;;;;;;13.30;55.02;101048.94;4980663;27;98154;-65
2022/01/17 05:40:02;;;;;;;;;;;;;;;13.31;54.61;101054.06;4979243;27;128376;-65
2022/01/17 05:42:29;;;;;;;;;;;;;;;13.31;54.88;101064.88;4979465;27;117313;-64
2022/01/17 05:44:54;;;;;;;;;;;;;;;13.32;55.07;101044.84;4979845;27;98273;-65
2022/01/17 05:47:20;;;;;;;;;;;;;;;13.32;54.85;101034.00;4980140;28;117695;-65
2022/01/17 05:49:46;;;;;;;;;;;;;;;13.33;54.79;101035.66;4977313;27;117417;-64
2022/01/17 05:52:12;;;;;;;;;;;;;;;13.33;54.90;101022.13;4980726;28;98287;-65
2022/01/17 05:54:39;;;;;;;;;;;;;;;13.34;54.66;101028.34;4979754;27;99193;-65
2022/01/17 05:57:05;;;;;;;;;;;;;;;13.34;54.93;101039.19;4980964;28;97840;-65
2022/01/17 05:59:31;;;;;;;;;;;;;;;13.33;54.70;101024.03;4979584;27;98569;-64
2022/01/17 06:01:57;;;;;;;;;;;;;;;13.33;54.69;101022.13;4980533;28;98553;-65
2022/01/17 06:04:23;;;;;;;;;;;;;;;13.35;54.91;101032.66;4979841;27;105527;-64
2022/01/17 06:06:49;;;;;;;;;;;;;;;13.33;54.82;101019.41;4980831;28;98156;-65
2022/01/17 06:09:15;;;;;;;;;;;;;;;13.33;54.74;100997.75;4979116;28;119099;-65
2022/01/17 06:11:41;;;;;;;;;;;;;;;13.35;54.82;100990.16;4980336;28;98949;-65
2022/01/17 06:14:08;;;;;;;;;;;;;;;13.34;54.63;100979.63;4978399;28;127594;-65
2022/01/17 06:16:35;;;;;;;;;;;;;;;13.35;54.91;100975.81;5012111;27;97838;-66
2022/01/17 06:19:01;;;;;;;;;;;;;;;13.35;54.76;100956.84;4980165;27;98938;-64
2022/01/17 06:21:27;;;;;;;;;;;;;;;13.35;54.67;100979.31;4979863;28;126282;-64
2022/01/17 06:23:53;;;;;;;;;;;;;;;13.35;54.45;100975.81;4980617;27;128156;-65
2022/01/17 06:26:19;;;;;;;;;;;;;;;13.35;54.38;100994.75;4984608;27;97849;-64
2022/01/17 06:28:45;;;;;;;;;;;;;;;13.35;54.37;100998.28;4983717;27;98515;-65
2022/01/17 06:31:11;;;;;;;;;;;;;;;13.34;54.82;100996.66;4982820;28;122672;-65
2022/01/17 06:33:37;;;;;;;;;;;;;;;13.35;54.30;101014.53;4982916;28;115650;-65
2022/01/17 06:36:03;;;;;;;;;;;;;;;13.36;54.11;100997.22;4980642;27;119335;-64
2022/01/17 06:38:29;;;;;;;;;;;;;;;13.36;54.28;100996.38;4983619;28;98814;-65
2022/01/17 06:40:55;;;;;;;;;;;;;;;13.36;54.38;101008.06;4981111;27;127883;-64
2022/01/17 06:43:22;;;;;;;;;;;;;;;13.34;54.18;100993.97;4979720;28;128463;-63
2022/01/17 06:45:48;;;;;;;;;;;;;;;13.35;54.40;100998.28;4983852;27;98057;-64
2022/01/17 06:48:14;;;;;;;;;;;;;;;13.34;54.25;100991.25;4980674;28;123659;-65
2022/01/17 06:50:39;;;;;;;;;;;;;;;13.35;54.45;100986.63;4982005;27;98314;-65
2022/01/17 06:53:05;;;;;;;;;;;;;;;13.35;54.33;100973.09;4982006;27;128200;-64
2022/01/17 06:55:31;;;;;;;;;;;;;;;13.35;54.09;100978.53;4982610;27;117336;-65
2022/01/17 06:57:57;;;;;;;;;;;;;;;13.35;54.37;100978.53;4982102;28;128105;-64
2022/01/17 07:00:23;;;;;;;;;;;;;;;13.34;54.31;100991.25;4981969;27;128189;-65
2022/01/17 07:02:49;;;;;;;;;;;;;;;13.34;54.41;100993.97;4981295;27;126474;-65
2022/01/17 07:05:15;;;;;;;;;;;;;;;13.34;54.30;101012.91;4983762;27;97961;-65
2022/01/17 07:07:41;;;;;;;;;;;;;;;13.34;54.23;101003.97;4983775;27;98001;-57
2022/01/17 07:10:08;;;;;;;;;;;;;;;13.34;54.17;101014.81;4981498;28;99773;-64
2022/01/17 07:12:37;;;;;;;;;;;;;;;13.33;54.15;101035.66;4980591;28;97999;-65
2022/01/17 07:15:06;;;;;;;;;;;;;;;13.35;54.10;101054.34;4983632;27;98047;-57
2022/01/17 07:17:32;;;;;;;;;;;;;;;13.34;53.91;101050.81;4982808;27;99460;-64
2022/01/17 07:19:58;;;;;;;;;;;;;;;13.32;54.38;101052.97;4980971;28;128334;-57
2022/01/17 07:22:24;;;;;;;;;;;;;;;13.33;54.09;101064.63;4982616;28;109830;-57
2022/01/17 07:24:50;;;;;;;;;;;;;;;13.33;54.23;101043.78;4982229;27;118218;-64
2022/01/17 07:27:16;;;;;;;;;;;;;;;13.33;54.13;101057.31;5014405;27;108210;-65
2022/01/17 07:29:42;;;;;;;;;;;;;;;13.31;54.19;101024.28;4981739;28;99476;-64
2022/01/17 07:32:09;;;;;;;;;;;;;;;13.29;53.94;101029.16;4981843;28;98417;-57
2022/01/17 07:34:35;;;;;;;;;;;;;;;13.31;54.09;101018.06;4981541;27;109310;-65
2022/01/17 07:37:01;;;;;;;;;;;;;;;13.30;54.08;101002.91;4982471;28;98368;-65
2022/01/17 07:39:27;;;;;;;;;;;;;;;13.30;54.03;100987.47;4981773;28;128134;-66
2022/01/17 07:41:53;;;;;;;;;;;;;;;13.29;54.25;100996.69;4981803;27;98157;-57
2022/01/17 07:44:20;;;;;;;;;;;;;;;13.29;54.21;100993.97;4981811;28;116166;-58
2022/01/17 07:46:49;;;;;;;;;;;;;;;13.29;54.43;100998.56;4978921;28;98966;-57
2022/01/17 07:49:19;;;;;;;;;;;;;;;13.29;54.47;101004.81;4981512;28;99087;-57
2022/01/17 07:51:46;;;;;;;;;;;;;;;13.29;54.09;101018.34;4980665;27;97954;-57
2022/01/17 07:54:14;;;;;;;;;;;;;;;13.29;54.18;101012.91;4981524;28;108209;-57
2022/01/17 07:56:40;;;;;;;;;;;;;;;13.30;54.39;101019.16;4980809;27;98308;-58
2022/01/17 07:59:07;;;;;;;;;;;;;;;13.28;54.36;101016.69;4980930;27;98585;-57
2022/01/17 08:01:33;;;;;;;;;;;;;;;13.29;54.24;101012.13;4981065;27;98367;-57
2022/01/17 08:03:59;;;;;;;;;;;;;;;13.29;54.50;101028.34;4982353;28;97877;-57
2022/01/17 08:06:26;;;;;;;;;;;;;;;13.28;54.34;101022.09;4980007;28;128806;-57
2022/01/17 08:08:51;;;;;;;;;;;;;;;13.30;54.88;101001.00;4981229;27;97828;-58
2022/01/17 08:11:18;;;;;;;;;;;;;;;13.33;54.31;100988.81;4980182;27;98078;-57
2022/01/17 08:13:44;;;;;;;;;;;;;;;13.35;54.38;100986.63;4980980;28;97778;-57
2022/01/17 08:16:10;;;;;;;;;;;;;;;13.34;54.24;100991.25;4981388;28;104606;-57
2022/01/17 08:18:36;;;;;;;;;;;;;;;13.35;54.29;100983.94;4980534;28;98312;-57
2022/01/17 08:21:03;;;;;;;;;;;;;;;13.34;54.29;100982.31;4978819;28;127858;-57
2022/01/17 08:23:29;;;;;;;;;;;;;;;13.34;54.63;100969.59;4980720;27;98089;-57
2022/01/17 08:25:55;;;;;;;;;;;;;;;13.33;54.65;100986.13;4961013;28;98468;-57
2022/01/17 08:28:21;;;;;;;;;;;;;;;13.31;54.86;100966.63;4959520;28;119789;-58
2022/01/17 08:30:47;;;;;;;;;;;;;;;13.30;54.57;100957.69;4971934;28;98595;-57
2022/01/17 08:33:13;;;;;;;;;;;;;;;13.31;54.44;100950.38;4980233;27;117116;-58
2022/01/17 08:35:39;;;;;;;;;;;;;;;13.31;54.75;100950.38;4979101;28;128278;-57
2022/01/17 08:38:05;;;;;;;;;;;;;;;13.31;54.63;100950.38;4980075;28;128963;-57
2022/01/17 08:40:31;;;;;;;;;;;;;;;13.31;54.83;100947.66;4980097;27;97948;-57
2022/01/17 08:42:57;;;;;;;;;;;;;;;13.32;54.84;100950.09;4980576;27;98085;-57
2022/01/17 08:45:24;;;;;;;;;;;;;;;13.34;54.83;100944.41;4979385;27;110324;-57
2022/01/17 08:47:51;;;;;;;;;;;;;;;13.31;54.66;100934.94;4979340;28;98932;-57
2022/01/17 08:50:21;;;;;;;;;;;;;;;13.34;55.16;100953.34;4980402;27;97894;-57
2022/01/17 08:52:47;;;;;;;;;;;;;;;13.35;54.86;100960.38;4980235;28;98436;-57
2022/01/17 08:55:13;;;;;;;;;;;;;;;13.36;55.27;100977.44;4979836;27;98942;-57
2022/01/17 08:57:39;;;;;;;;;;;;;;;13.35;55.04;100962.28;4979536;27;113480;-57
2022/01/17 09:00:08;;;;;;;;;;;;;;;13.33;55.17;100970.69;4978471;27;127432;-57
2022/01/17 09:02:34;;;;;;;;;;;;;;;13.32;54.93;100958.22;4980079;28;111672;-57
2022/01/17 09:05:00;;;;;;;;;;;;;;;13.35;55.13;100921.66;4979241;27;105471;-57
2022/01/17 09:07:26;;;;;;;;;;;;;;;13.35;55.08;100927.06;4979918;28;128230;-57
2022/01/17 09:09:52;;;;;;;;;;;;;;;13.35;55.02;100900.81;4978884;27;125798;-57
2022/01/17 09:12:18;;;;;;;;;;;;;;;13.36;54.87;100912.44;4981258;28;97994;-57
2022/01/17 09:14:43;;;;;;;;;;;;;;;13.36;55.26;100920.56;4979671;28;128808;-65
2022/01/17 09:17:10;;;;;;;;;;;;;;;13.36;55.37;100943.06;4980088;28;127644;-57
2022/01/17 09:19:39;;;;;;;;;;;;;;;13.36;55.26;100926.81;4979506;27;98265;-64
2022/01/17 09:22:06;;;;;;;;;;;;;;;13.36;55.15;100932.22;4980915;27;101727;-57
2022/01/17 09:24:33;;;;;;;;;;;;;;;13.36;55.11;100926.81;4980112;27;98241;-65
2022/01/17 09:26:59;;;;;;;;;;;;;;;13.40;55.10;100927.06;4980868;28;98716;-57
2022/01/17 09:29:25;;;;;;;;;;;;;;;13.40;55.26;100940.59;4980355;27;111283;-64
2022/01/17 09:31:51;;;;;;;;;;;;;;;13.41;54.91;100948.47;4979832;27;108358;-65
2022/01/17 09:34:17;;;;;;;;;;;;;;;13.45;55.17;100948.72;4981138;27;99412;-57
2022/01/17 09:36:43;;;;;;;;;;;;;;;13.46;54.99;100959.28;4979958;28;128539;-65
2022/01/17 09:39:09;;;;;;;;;;;;;;;13.50;55.14;100935.16;4979064;28;128403;-57
2022/01/17 09:41:35;;;;;;;;;;;;;;;13.50;54.86;100930.56;4980536;27;97932;-58
2022/01/17 09:44:02;;;;;;;;;;;;;;;13.50;54.85;100925.13;4979659;28;111569;-64
2022/01/17 09:46:33;;;;;;;;;;;;;;;13.57;55.16;100940.31;4980529;28;98653;-65
2022/01/17 09:49:13;;;;;;;;;;;;;;;13.57;54.87;100929.47;4980027;27;98015;-64
2022/01/17 09:52:06;;;;;;;;;;;;;;;13.61;54.92;100925.13;4979822;27;97669;-64
2022/01/17 09:54:31;;;;;;;;;;;;;;;13.61;54.96;100933.25;4980902;28;99334;-64
2022/01/17 09:56:58;;;;;;;;;;;;;;;13.64;54.96;100928.09;4977877;27;116616;-64
2022/01/17 09:59:24;;;;;;;;;;;;;;;13.66;54.80;100935.94;4976528;28;121378;-58
2022/01/17 10:01:50;;;;;;;;;;;;;;;13.69;55.06;100927.25;4980200;27;117724;-64
2022/01/17 10:04:19;;;;;;;;;;;;;;;13.69;55.30;100940.81;4979119;27;127215;-57
2022/01/17 10:06:52;;;;;;;;;;;;;;;13.70;55.00;100948.63;4980518;27;97925;-65
2022/01/17 10:09:22;;;;;;;;;;;;;;;13.75;55.17;100931.53;4979646;27;99091;-65
2022/01/17 10:12:15;;;;;;;;;;;;;;;13.74;54.95;100919.91;4979746;28;98589;-57
2022/01/17 10:15:00;;;;;;;;;;;;;;;13.78;54.80;100924.78;4979996;27;98549;-64
2022/01/17 10:17:47;;;;;;;;;;;;;;;13.82;55.01;100923.13;4980460;27;99044;-64
2022/01/17 10:20:16;;;;;;;;;;;;;;;13.83;55.14;100916.63;4980367;27;99778;-58
2022/01/17 10:22:53;;;;;;;;;;;;;;;13.90;54.99;100890.84;4980020;27;97681;-65
2022/01/17 10:28:10;;;;;;;;;;;;;;;13.90;54.96;100903.59;4976827;27;98787;-64
2022/01/17 10:30:50;;;;;;;;;;;;;;;13.88;54.98;100903.88;4979296;27;98054;-63
2022/01/17 10:36:01;;;;;;;;;;;;;;;13.90;54.93;100882.72;4979644;27;99488;-65
2022/01/17 10:38:27;;;;;;;;;;;;;;;13.91;55.11;100897.91;4978655;28;126014;-64
2022/01/17 10:41:01;;;;;;;;;;;;;;;13.92;54.94;100894.09;4978528;27;99219;-64
2022/01/17 10:43:35;;;;;;;;;;;;;;;13.96;55.08;100891.63;4980518;28;97883;-65
2022/01/17 10:46:05;;;;;;;;;;;;;;;14.00;55.08;100892.69;4979127;28;99151;-64
2022/01/17 10:48:34;;;;;;;;;;;;;;;13.99;55.38;100899.22;4975777;28;98749;-64
2022/01/17 10:51:00;;;;;;;;;;;;;;;14.01;55.26;100902.44;4978950;28;97927;-57
2022/01/17 10:53:26;;;;;;;;;;;;;;;14.02;55.30;100885.09;4979033;27;110044;-65
2022/01/17 10:55:53;;;;;;;;;;;;;;;14.04;55.36;100891.03;4979261;27;97765;-65
2022/01/17 10:58:31;;;;;;;;;;;;;;;14.10;54.85;100894.53;4980494;27;98624;-59
2022/01/17 11:01:04;;;;;;;;;;;;;;;14.11;55.25;100909.69;4978693;27;97827;-65
2022/01/17 11:03:32;;;;;;;;;;;;;;;14.14;55.08;100887.44;4980481;28;97969;-65
2022/01/17 11:06:02;;;;;;;;;;;;;;;14.19;54.93;100876.59;4976482;27;125132;-64
2022/01/17 11:08:28;;;;;;;;;;;;;;;14.18;55.18;100897.44;4979657;28;99031;-65
2022/01/17 11:10:56;;;;;;;;;;;;;;;14.20;54.97;100898.00;4981178;27;97990;-64
2022/01/17 11:13:24;;;;;;;;;;;;;;;14.27;55.00;100899.59;4983694;27;98047;-65
2022/01/17 11:15:57;;;;;;;;;;;;;;;14.36;54.97;100893.28;4981681;28;97947;-65
2022/01/17 11:18:26;;;;;;;;;;;;;;;14.41;54.85;100909.50;4983887;27;98493;-66
2022/01/17 11:20:56;;;;;;;;;;;;;;;14.42;55.03;100905.72;4983972;27;98746;-57
2022/01/17 11:23:22;;;;;;;;;;;;;;;14.49;54.79;100908.94;4983540;27;98532;-65
2022/01/17 11:25:52;;;;;;;;;;;;;;;14.48;54.77;100933.59;4981728;27;98309;-65
2022/01/17 11:28:21;;;;;;;;;;;;;;;14.46;54.76;100941.19;4983259;27;98289;-64
2022/01/17 11:30:48;;;;;;;;;;;;;;;14.44;55.17;100946.91;4982678;27;97947;-64
2022/01/17 11:33:14;;;;;;;;;;;;;;;14.44;54.88;100937.97;4981441;27;98410;-57
2022/01/17 11:35:42;;;;;;;;;;;;;;;14.45;55.15;100953.94;4977996;28;128939;-57
2022/01/17 11:38:11;;;;;;;;;;;;;;;14.46;54.99;100942.03;4978800;27;98774;-64
2022/01/17 11:40:38;;;;;;;;;;;;;;;14.51;55.23;100956.69;4975785;27;98246;-57
2022/01/17 11:43:36;;;;;;;;;;;;;;;14.47;55.35;100959.91;4978636;28;112794;-64
2022/01/17 11:46:18;;;;;;;;;;;;;;;14.49;55.38;100956.94;4978847;27;98256;-57
2022/01/17 11:48:51;;;;;;;;;;;;;;;14.48;55.26;100958.81;4978411;28;98354;-57
2022/01/17 11:51:17;;;;;;;;;;;;;;;14.46;55.26;100958.31;4977469;27;121529;-57
2022/01/17 11:53:48;;;;;;;;;;;;;;;14.43;55.66;100958.88;4977177;28;101128;-57
2022/01/17 11:56:16;;;;;;;;;;;;;;;14.41;55.53;100963.75;4978271;27;99297;-57
2022/01/17 11:58:44;;;;;;;;;;;;;;;14.40;55.56;100969.47;4978487;27;99497;-64
2022/01/17 12:01:17;;;;;;;;;;;;;;;14.36;55.90;101069.53;4978611;27;98113;-64
2022/01/17 12:03:54;;;;;;;;;;;;;;;14.30;55.68;101089.63;4975994;27;97807;-63
2022/01/17 12:06:22;;;;;;;;;;;;;;;14.25;55.82;101092.38;4978127;27;98836;-56
2022/01/17 12:08:49;;;;;;;;;;;;;;;14.19;55.80;101105.13;4977379;27;98659;-57
2022/01/17 12:11:34;;;;;;;;;;;;;;;14.15;55.67;101111.41;4977771;27;98122;-63
2022/01/17 12:14:26;;;;;;;;;;;;;;;14.11;55.27;101107.56;4979110;28;98020;-58
2022/01/17 12:16:52;;;;;;;;;;;;;;;14.10;55.37;101105.97;4977882;28;98566;-57
2022/01/17 12:19:18;;;;;;;;;;;;;;;14.10;55.33;101120.31;4974753;27;99545;-64
2022/01/17 12:21:53;;;;;;;;;;;;;;;14.10;55.41;101125.75;4976707;27;127616;-57
2022/01/17 12:24:32;;;;;;;;;;;;;;;14.07;55.29;101129.03;4978781;28;98274;-64
2022/01/17 12:27:01;;;;;;;;;;;;;;;14.04;55.03;101116.03;4977705;28;98092;-64
2022/01/17 12:29:38;;;;;;;;;;;;;;;14.01;55.29;101097.59;4977898;27;98848;-57
2022/01/17 12:32:06;;;;;;;;;;;;;;;13.99;55.22;101087.03;4976925;28;98747;-64
2022/01/17 12:34:40;;;;;;;;;;;;;;;13.97;55.31;101083.78;4977596;27;98026;-64
2022/01/17 12:37:25;;;;;;;;;;;;;;;13.97;55.22;101083.78;4977810;27;98160;-56
2022/01/17 12:39:51;;;;;;;;;;;;;;;13.98;55.32;101093.50;4975622;27;98280;-64
2022/01/17 12:42:17;;;;;;;;;;;;;;;13.97;55.35;101094.63;4977575;28;97793;-64
2022/01/17 12:44:45;;;;;;;;;;;;;;;13.96;55.54;101094.91;4977147;27;117268;-56
2022/01/17 12:47:11;;;;;;;;;;;;;;;13.98;55.78;101106.25;4977299;28;99268;-57
2022/01/17 12:49:37;;;;;;;;;;;;;;;13.99;55.37;101121.47;4977475;28;105504;-64
2022/01/17 12:52:03;;;;;;;;;;;;;;;14.02;55.58;101129.03;4976590;28;98884;-64
2022/01/17 12:54:30;;;;;;;;;;;;;;;14.05;55.67;101136.59;4976776;27;111688;-64
2022/01/17 12:56:57;;;;;;;;;;;;;;;14.09;55.54;101128.75;4976643;28;122847;-64
2022/01/17 12:59:23;;;;;;;;;;;;;;;14.16;55.38;101131.97;4976028;27;117992;-56
2022/01/17 13:01:53;;;;;;;;;;;;;;;14.22;55.46;101126.25;4977172;28;121723;-65